TFM - Tactical Decision Aid
ID: Runway Winds: CIG/VIS Threshold:

KRDG - Reading/Spaatz Fld, PA, US

Updated at: 1729 UTC 26 Oct 2021
Latest TAF at: 1359 UTC 26 Oct 2021

TAF Board

Time1654Z 26/18Z 26/19Z 26/20Z 26/21Z 26/22Z 26/23Z 27/00Z 27/01Z 27/02Z 27/03Z 27/04Z 27/05Z 27/06Z>>
Type OBS PRVL PRVL PRVL PRVL PRVL PRVL PRVL
  [TEMP]  
PRVL
  [TEMP]  
PRVL
  [TEMP]  
PRVL
  [TEMP]  
PRVL PRVL PRVL
VIS 10 6 6 6 5 5 5 5
  [2]  
5
  [2]  
5
  [2]  
5
  [2]  
5 4 4
CIG 24 -- -- -- 15 15 15 15
  [8]  
15
  [8]  
15
  [8]  
15
  [8]  
15 20 20
Cover OVC SCT SCT SCT OVC OVC OVC OVC
  [BKN]  
OVC
  [BKN]  
OVC
  [BKN]  
OVC
  [BKN]  
OVC BKN BKN
FltCat MVFR VFR VFR VFR MVFR MVFR MVFR MVFR
  [IFR]  
MVFR
  [IFR]  
MVFR
  [IFR]  
MVFR
  [IFR]  
MVFR MVFR MVFR
WX -- BR BR BR -RA -RA -RA -RA
  [-RA]  
-RA
  [-RA]  
-RA
  [-RA]  
-RA
  [-RA]  
-RA BR BR
WDir 290 320 320 320 320 320 320 320
[320]
320
[320]
320
[320]
320
[320]
320 350 350
WSpd 13 12 12 12 14 14 14 14
  [14]  
14
  [14]  
14
  [14]  
14
  [14]  
14 13 13
WGst 20 18 18 18 25 25 25 25
  [25]  
25
  [25]  
25
  [25]  
25
  [25]  
25 -- --

TDA Impact Legend

  None Marginal Slight Moderate High
Visibility (sm) >5 3≤X≤5 2≤X<3 0.75≤X<2 <0.75
Ceiling (100 ft) >30 10≤X≤30 7≤X<10 2≤X<7 <2
Wind Speed (kt) <15 15≤X<25 25≤X<30 ≥30
Wind Gust (kt) <15 15≤X<25 25≤X<35 ≥35
Weather No Wx Reported VCTS -TS,-FZRA TS,FZRA +TS,+FZRA
TAF
KRDG 261359Z 2614/2712 30006KT 4SM -RA BR SCT007 SCT045
  FM261600 32012G18KT 6SM BR SCT020
  FM262100 32014G25KT 5SM -RA OVC015
  TEMPO 2700/2704 2SM -RA BKN008
  FM270500 35013KT 4SM BR BKN020
  FM271000 33014KT P6SM BKN040


METAR
KRDG 261654Z 29013G20KT 10SM BKN024 BKN030 OVC100 18/14 A2940 RMK AO2 RAB1555E14 SLP957 P0000 T01780139 $
KRDG 261554Z COR 30012KT 10SM SCT024 BKN030 BKN100 19/16 A2942 RMK AO2 RAB1456E15 SLP965 P0000 T01890156 $
KRDG 261454Z 29009KT 10SM BKN014 BKN019 OVC060 17/15 A2944 RMK AO2 SLP974 60011 T01720150 56018 $
KRDG 261407Z 6SM BR BKN009 OVC055 17/15 A2946 RMK AO2 T01670150 $

Radar Display
Forecast Discussion